Search for airport 
image banner adimage banner adimage banner ad
image banner ad

CA49 - Jones Farms

Located in Stratford, United States

ICAO - CA49, IATA -

Data provided by Airmate  

General information

Coordinates: N36°12'15" W119°50'27"
Elevation is 199 feet MSL.
Magnetic variation is 15° East
View others Airports in California

Operational data

Special qualification required
Current time UTC:
Current local time:
Weather at : KNLC - Lemoore Nas (Reeves Fld) ( 17 km )
METAR: KNLC 240956Z AUTO 34008KT 10SM CLR 18/11 A2994 RMK AO2 SLP136 T01780106
TAF: TAF KNLC 2407/2507 30006KT 9999 SKC QNH2988INS FM241500 32011KT 9999 SKC QNH2982INS FM250500 28008KT 9999 SKC QNH2985INS AUTOMATED SENSOR METWATCH 2407 TIL 2414 T15/2413Z T34/2423Z FS30173
View NOTAMs / SUP AIP / TFR affecting this airport [VIEW]
Communications frequencies: [VIEW]

Runways:

RWY identifierQFULength (ft)Width (ft)SurfaceLDA (ft)
15190050ASPH
33190050ASPH

Airport contact information

Address: Stratford United States

Satellite view of CA49